Time;durP1;ratioP1;P1;durP2;ratioP2;P2;SDS_P1;SDS_P2;PMS_P1;PMS_P2;Temp;Humidity;BMP_temperature;BMP_pressure;BME280_temperature;BME280_humidity;BME280_pressure;Samples;Min_cycle;Max_cycle;Signal;HPM_P1;HPM_P2
2022/06/05 00:01:42;;;;;;;7.57;3.15;;;;;;;-148.56;100.00;61375.16;5113844;27;20027;-32
2022/06/05 00:04:32;;;;;;;3.90;3.10;;;;;;;-148.56;100.00;61375.16;5114105;27;20540;-32
2022/06/05 00:07:11;;;;;;;4.28;3.30;;;;;;;-148.56;100.00;61375.16;5094255;27;20094;-33
2022/06/05 00:10:10;;;;;;;4.78;3.17;;;;;;;-148.56;100.00;61375.16;5094872;28;20036;-35
2022/06/05 00:12:50;;;;;;;3.67;3.17;;;;;;;-148.56;100.00;61375.16;5111172;27;20069;-31
2022/06/05 00:15:16;;;;;;;3.42;3.13;;;;;;;-148.56;100.00;61375.16;5080036;27;20100;-31
2022/06/05 00:17:41;;;;;;;4.28;2.78;;;;;;;-148.56;100.00;61375.16;5086409;28;20039;-33
2022/06/05 00:20:07;;;;;;;3.42;3.00;;;;;;;-148.56;100.00;61375.16;5106877;27;20683;-33
2022/06/05 00:22:33;;;;;;;4.07;2.80;;;;;;;-148.56;100.00;61375.16;5104088;27;20045;-31
2022/06/05 00:24:59;;;;;;;3.80;3.13;;;;;;;-148.56;100.00;61375.16;5103156;27;20871;-31
2022/06/05 00:27:46;;;;;;;3.47;2.80;;;;;;;-148.56;100.00;61375.16;5103426;27;20042;-31
2022/06/05 00:30:30;;;;;;;4.65;2.88;;;;;;;-148.56;100.00;61375.16;5106527;27;20409;-37
2022/06/05 00:33:35;;;;;;;5.00;3.13;;;;;;;-148.56;100.00;61375.16;5103072;27;20667;-32
2022/06/05 00:36:09;;;;;;;4.55;3.05;;;;;;;-148.56;100.00;61375.16;5088108;27;20146;-32
2022/06/05 00:38:42;;;;;;;3.58;3.05;;;;;;;-148.56;100.00;61375.16;5083963;28;20549;-31
2022/06/05 00:41:16;;;;;;;6.38;2.90;;;;;;;-148.56;100.00;61375.16;5103249;27;20039;-36
2022/06/05 00:43:42;;;;;;;5.15;2.90;;;;;;;-148.56;100.00;61375.16;5117499;27;20035;-31
2022/06/05 00:46:07;;;;;;;3.63;2.75;;;;;;;-148.56;100.00;61375.16;5112755;27;20023;-36
2022/06/05 00:48:33;;;;;;;4.53;2.90;;;;;;;-148.56;100.00;61375.16;5094656;28;20031;-30
2022/06/05 00:50:59;;;;;;;6.05;2.60;;;;;;;-148.56;100.00;61375.16;5090613;27;20023;-31
2022/06/05 00:53:24;;;;;;;3.75;2.92;;;;;;;-148.56;100.00;61375.16;5114692;27;20095;-31
2022/06/05 00:55:51;;;;;;;3.35;2.80;;;;;;;-148.56;100.00;61375.16;5110384;27;20035;-30
2022/06/05 00:58:16;;;;;;;3.58;2.92;;;;;;;-148.56;100.00;61375.16;5096972;27;20023;-30
2022/06/05 01:00:44;;;;;;;3.70;3.00;;;;;;;-148.56;100.00;61375.16;5113674;27;20385;-32
2022/06/05 01:03:10;;;;;;;3.28;2.78;;;;;;;-148.56;100.00;61375.16;5115980;27;20778;-32
2022/06/05 01:05:36;;;;;;;5.18;2.83;;;;;;;-148.56;100.00;61375.16;5113632;27;20035;-30
2022/06/05 01:08:02;;;;;;;4.07;2.92;;;;;;;-148.56;100.00;61375.16;5114695;27;20141;-32
2022/06/05 01:10:41;;;;;;;3.15;2.83;;;;;;;-148.56;100.00;61375.16;5116540;27;20085;-31
2022/06/05 01:13:21;;;;;;;3.50;2.80;;;;;;;-148.56;100.00;61375.16;5087208;27;20096;-30
2022/06/05 01:15:56;;;;;;;4.38;3.00;;;;;;;-148.56;100.00;61375.16;5107361;27;20019;-29
2022/06/05 01:18:39;;;;;;;4.18;2.78;;;;;;;-148.56;100.00;61375.16;5110593;27;20041;-32
2022/06/05 01:21:08;;;;;;;4.75;3.03;;;;;;;-148.56;100.00;61375.16;5087245;27;20156;-32
2022/06/05 01:23:55;;;;;;;5.75;3.20;;;;;;;-148.56;100.00;61375.16;5112059;27;20106;-31
2022/06/05 01:26:38;;;;;;;3.63;3.15;;;;;;;-148.56;100.00;61375.16;5105496;27;20058;-30
2022/06/05 01:29:08;;;;;;;5.18;3.33;;;;;;;-148.56;100.00;61375.16;5080083;27;20030;-31
2022/06/05 01:31:48;;;;;;;3.55;3.10;;;;;;;-148.56;100.00;61375.16;5085382;28;20134;-30
2022/06/05 01:34:57;;;;;;;4.40;3.28;;;;;;;-148.56;100.00;61375.16;5087056;27;20107;-31
2022/06/05 01:37:39;;;;;;;3.83;3.30;;;;;;;-148.56;100.00;61375.16;5007081;28;21987;-29
2022/06/05 01:40:09;;;;;;;4.18;3.03;;;;;;;-148.56;100.00;61375.16;5078674;27;20088;-32
2022/06/05 01:42:47;;;;;;;5.07;3.10;;;;;;;-148.56;100.00;61375.16;5082662;28;20031;-29
2022/06/05 01:45:33;;;;;;;3.17;2.88;;;;;;;-148.56;100.00;61375.16;5106281;27;20114;-31
2022/06/05 01:47:59;;;;;;;6.35;3.38;;;;;;;-148.56;100.00;61375.16;5088764;27;20035;-32
2022/06/05 01:50:42;;;;;;;3.58;2.92;;;;;;;-148.56;100.00;61375.16;5086275;27;20104;-31
2022/06/05 01:53:40;;;;;;;4.35;2.83;;;;;;;-148.56;100.00;61375.16;5086472;27;20027;-34
2022/06/05 01:56:18;;;;;;;5.75;3.47;;;;;;;-148.56;100.00;61375.16;5045368;27;20039;-34
2022/06/05 01:58:49;;;;;;;5.40;3.40;;;;;;;-148.56;100.00;61375.16;5104881;27;20107;-29
2022/06/05 02:01:21;;;;;;;5.10;3.40;;;;;;;-148.56;100.00;61375.16;5100541;27;20023;-30
2022/06/05 02:04:14;;;;;;;9.50;3.15;;;;;;;-148.56;100.00;61375.16;5067687;27;20042;-31
2022/06/05 02:06:46;;;;;;;4.85;3.50;;;;;;;-148.56;100.00;61375.16;5079475;28;20059;-31
2022/06/05 02:09:36;;;;;;;4.07;2.92;;;;;;;-148.56;100.00;61375.16;5100108;27;20719;-31
2022/06/05 02:12:05;;;;;;;4.55;3.17;;;;;;;-148.56;100.00;61375.16;5085740;27;20321;-36
2022/06/05 02:14:30;;;;;;;3.65;3.30;;;;;;;-148.56;100.00;61375.16;5086921;28;20102;-35
2022/06/05 02:16:56;;;;;;;4.38;3.30;;;;;;;-148.56;100.00;61375.16;5101778;27;20131;-30
2022/06/05 02:19:21;;;;;;;4.75;3.28;;;;;;;-148.56;100.00;61375.16;5064239;27;20027;-33
2022/06/05 02:21:47;;;;;;;3.72;3.35;;;;;;;-148.56;100.00;61375.16;5103222;27;20035;-31
2022/06/05 02:24:12;;;;;;;3.90;3.53;;;;;;;-148.56;100.00;61375.16;5107514;27;20075;-29
2022/06/05 02:26:38;;;;;;;4.45;3.55;;;;;;;-148.56;100.00;61375.16;5101542;27;20052;-35
2022/06/05 02:29:10;;;;;;;4.43;3.42;;;;;;;-148.56;100.00;61375.16;5104941;27;20034;-34
2022/06/05 02:32:08;;;;;;;3.63;3.30;;;;;;;-148.56;100.00;61375.16;5085540;28;20508;-32
2022/06/05 02:34:52;;;;;;;4.85;3.50;;;;;;;-148.56;100.00;61375.16;5047348;28;20051;-32
2022/06/05 02:37:24;;;;;;;4.45;3.60;;;;;;;-148.56;100.00;61375.16;5096493;27;20030;-33
2022/06/05 02:40:30;;;;;;;6.55;3.28;;;;;;;-148.56;100.00;61375.16;5081270;27;20015;-31
2022/06/05 02:43:31;;;;;;;6.15;3.72;;;;;;;-148.56;100.00;61375.16;5104131;27;20451;-31
2022/06/05 02:46:04;;;;;;;6.03;3.30;;;;;;;-148.56;100.00;61375.16;5086195;27;20058;-30
2022/06/05 02:48:35;;;;;;;5.88;3.45;;;;;;;-148.56;100.00;61375.16;5070364;28;20894;-34
2022/06/05 02:51:10;;;;;;;5.50;3.37;;;;;;;-148.56;100.00;61375.16;5087463;27;20035;-34
2022/06/05 02:53:53;;;;;;;3.97;3.53;;;;;;;-148.56;100.00;61375.16;5070885;28;20031;-32
2022/06/05 02:56:18;;;;;;;4.45;3.22;;;;;;;-148.56;100.00;61375.16;5105523;27;20720;-30
2022/06/05 02:58:44;;;;;;;4.72;3.00;;;;;;;-148.56;100.00;61375.16;5115151;27;20035;-31
2022/06/05 03:03:54;;;;;;;4.55;3.40;;;;;;;-148.56;100.00;61375.16;5113672;27;20655;-32
2022/06/05 03:06:19;;;;;;;5.20;3.17;;;;;;;-148.56;100.00;61375.16;5109277;27;20039;-30
2022/06/05 03:08:44;;;;;;;3.83;3.30;;;;;;;-148.56;100.00;61375.16;5115439;27;20024;-32
2022/06/05 03:11:10;;;;;;;3.75;3.00;;;;;;;-148.56;100.00;61375.16;5112894;27;20031;-31
2022/06/05 03:13:35;;;;;;;4.88;3.50;;;;;;;-148.56;100.00;61375.16;5112741;27;20398;-36
2022/06/05 03:16:01;;;;;;;3.22;2.90;;;;;;;-148.56;100.00;61375.16;5113889;27;20035;-33
2022/06/05 03:18:26;;;;;;;3.50;3.00;;;;;;;-148.56;100.00;61375.16;5116631;27;20023;-30
2022/06/05 03:20:58;;;;;;;5.78;3.20;;;;;;;-148.56;100.00;61375.16;5116338;27;20444;-32
2022/06/05 03:23:25;;;;;;;4.20;2.95;;;;;;;-148.56;100.00;61375.16;5115008;27;20031;-31
2022/06/05 03:25:50;;;;;;;3.92;3.10;;;;;;;-148.56;100.00;61375.16;5112997;27;20074;-31
2022/06/05 03:28:16;;;;;;;4.07;3.20;;;;;;;-148.56;100.00;61375.16;5117136;27;20039;-31
2022/06/05 03:30:41;;;;;;;4.22;3.00;;;;;;;-148.56;100.00;61375.16;5119487;27;20517;-32
2022/06/05 03:33:07;;;;;;;3.05;2.70;;;;;;;-148.56;100.00;61375.16;5119673;27;20030;-35
2022/06/05 03:35:35;;;;;;;3.28;2.90;;;;;;;-148.56;100.00;61375.16;5116030;27;20031;-37
2022/06/05 03:38:01;;;;;;;4.70;3.00;;;;;;;-148.56;100.00;61375.16;5117994;27;20031;-31
2022/06/05 03:40:26;;;;;;;2.78;2.58;;;;;;;-148.56;100.00;61375.16;5113232;27;20418;-31
2022/06/05 03:42:51;;;;;;;3.13;2.63;;;;;;;-148.56;100.00;61375.16;5117729;27;20027;-33
2022/06/05 03:45:17;;;;;;;4.50;3.00;;;;;;;-148.56;100.00;61375.16;5115332;27;20087;-37
2022/06/05 03:47:42;;;;;;;4.75;2.88;;;;;;;-148.56;100.00;61375.16;5118885;27;20031;-30
2022/06/05 03:50:08;;;;;;;4.00;2.80;;;;;;;-148.56;100.00;61375.16;5114506;27;20038;-36
2022/06/05 03:52:34;;;;;;;3.40;2.90;;;;;;;-148.56;100.00;61375.16;5116197;27;20138;-33
2022/06/05 03:54:59;;;;;;;6.20;3.30;;;;;;;-148.56;100.00;61375.16;5115148;27;20413;-35
2022/06/05 03:57:25;;;;;;;5.97;3.13;;;;;;;-148.56;100.00;61375.16;5109847;27;20027;-30
2022/06/05 03:59:50;;;;;;;4.18;3.20;;;;;;;-148.56;100.00;61375.16;5112975;27;20023;-35
2022/06/05 04:02:15;;;;;;;4.80;3.17;;;;;;;-148.56;100.00;61375.16;5111832;27;20397;-37
2022/06/05 04:04:41;;;;;;;3.42;3.03;;;;;;;-148.56;100.00;61375.16;5104991;27;20034;-33
2022/06/05 04:07:06;;;;;;;3.05;2.75;;;;;;;-148.56;100.00;61375.16;5086342;27;20460;-32
2022/06/05 04:09:32;;;;;;;3.10;2.80;;;;;;;-148.56;100.00;61375.16;5106221;27;20030;-30
2022/06/05 04:11:57;;;;;;;3.35;2.90;;;;;;;-148.56;100.00;61375.16;5105268;27;20038;-29
2022/06/05 04:14:22;;;;;;;3.58;2.85;;;;;;;-148.56;100.00;61375.16;5102582;27;20038;-30
2022/06/05 04:16:48;;;;;;;3.55;3.10;;;;;;;-148.56;100.00;61375.16;5108536;27;20036;-30
2022/06/05 04:19:13;;;;;;;3.88;3.10;;;;;;;-148.56;100.00;61375.16;5106158;27;20032;-30
2022/06/05 04:21:40;;;;;;;4.03;3.13;;;;;;;-148.56;100.00;61375.16;5107279;27;20020;-29
2022/06/05 04:24:06;;;;;;;3.67;2.97;;;;;;;-148.56;100.00;61375.16;5107172;27;20038;-33
2022/06/05 04:26:32;;;;;;;8.05;2.90;;;;;;;-148.56;100.00;61375.16;5107768;27;20027;-31
2022/06/05 04:28:58;;;;;;;3.40;2.88;;;;;;;-148.56;100.00;61375.16;5106828;27;20035;-29
2022/06/05 04:31:35;;;;;;;3.30;3.00;;;;;;;-148.56;100.00;61375.16;5107912;27;20078;-30
2022/06/05 04:34:03;;;;;;;3.65;2.90;;;;;;;-148.56;100.00;61375.16;5102777;27;20515;-31
2022/06/05 04:36:28;;;;;;;7.13;3.05;;;;;;;-148.56;100.00;61375.16;5103400;27;20175;-33
2022/06/05 04:38:53;;;;;;;4.25;3.28;;;;;;;-148.56;100.00;61375.16;5104937;27;20035;-30
2022/06/05 04:41:19;;;;;;;6.93;3.50;;;;;;;-148.56;100.00;61375.16;5109262;27;20999;-33
2022/06/05 04:43:45;;;;;;;3.63;3.00;;;;;;;-148.56;100.00;61375.16;5104289;27;20075;-32
2022/06/05 04:46:11;;;;;;;3.70;3.30;;;;;;;-148.56;100.00;61375.16;5105255;27;20088;-30
2022/06/05 04:48:36;;;;;;;3.67;3.25;;;;;;;-148.56;100.00;61375.16;5105491;27;20046;-32
2022/06/05 04:51:06;;;;;;;5.32;3.35;;;;;;;-148.56;100.00;61375.16;5108794;27;20056;-35
2022/06/05 04:53:31;;;;;;;3.80;2.92;;;;;;;-148.56;100.00;61375.16;5105055;27;20030;-35
2022/06/05 04:55:57;;;;;;;4.22;3.13;;;;;;;-148.56;100.00;61375.16;5109915;27;20031;-32
2022/06/05 04:58:22;;;;;;;5.07;3.50;;;;;;;-148.56;100.00;61375.16;5112251;27;20062;-33
2022/06/05 05:00:47;;;;;;;3.92;3.15;;;;;;;-148.56;100.00;61375.16;5114614;27;20027;-31
2022/06/05 05:03:13;;;;;;;4.75;3.38;;;;;;;-148.56;100.00;61375.16;5109990;27;20468;-34
2022/06/05 05:05:38;;;;;;;3.95;3.10;;;;;;;-148.56;100.00;61375.16;5113173;27;20527;-32
2022/06/05 05:08:04;;;;;;;3.95;3.22;;;;;;;-148.56;100.00;61375.16;5112255;27;20042;-36
2022/06/05 05:10:29;;;;;;;4.70;3.53;;;;;;;-148.56;100.00;61375.16;5113310;27;20031;-36
2022/06/05 05:12:55;;;;;;;5.20;3.65;;;;;;;-148.56;100.00;61375.16;5115280;27;20027;-33
2022/06/05 05:15:20;;;;;;;5.78;3.80;;;;;;;-148.56;100.00;61375.16;5115067;27;20683;-32
2022/06/05 05:17:46;;;;;;;5.68;4.00;;;;;;;-148.56;100.00;61375.16;5115697;27;20027;-37
2022/06/05 05:20:12;;;;;;;8.20;3.80;;;;;;;-148.56;100.00;61375.16;5116872;27;20119;-35
2022/06/05 05:22:38;;;;;;;5.85;3.50;;;;;;;-148.56;100.00;61375.16;5120298;27;20054;-31
2022/06/05 05:25:07;;;;;;;4.95;3.13;;;;;;;-148.56;100.00;61375.16;5117951;27;20957;-33
2022/06/05 05:27:33;;;;;;;3.42;3.10;;;;;;;-148.56;100.00;61375.16;5113578;27;20059;-32
2022/06/05 05:29:58;;;;;;;9.45;3.70;;;;;;;-148.56;100.00;61375.16;5119363;27;20039;-37
2022/06/05 05:32:24;;;;;;;7.05;3.42;;;;;;;-148.56;100.00;61375.16;5114090;27;20031;-31
2022/06/05 05:34:49;;;;;;;6.85;3.50;;;;;;;-148.56;100.00;61375.16;5117756;27;20024;-31
2022/06/05 05:37:14;;;;;;;4.00;3.33;;;;;;;-148.56;100.00;61375.16;5111422;27;20029;-32
2022/06/05 05:42:24;;;;;;;5.13;3.53;;;;;;;-148.56;100.00;61375.16;5114209;27;20760;-31
2022/06/05 05:44:51;;;;;;;9.10;4.13;;;;;;;-148.56;100.00;61375.16;5117093;27;20027;-31
2022/06/05 05:47:27;;;;;;;5.47;3.53;;;;;;;-148.56;100.00;61375.16;5107238;27;21045;-31
2022/06/05 05:49:54;;;;;;;6.40;3.42;;;;;;;-148.56;100.00;61375.16;5111538;27;20027;-34
2022/06/05 05:52:19;;;;;;;4.97;3.58;;;;;;;-148.56;100.00;61375.16;5113805;27;20164;-31
2022/06/05 05:54:45;;;;;;;5.22;3.50;;;;;;;-148.56;100.00;61375.16;5116487;27;20121;-30
2022/06/05 05:57:10;;;;;;;3.53;3.22;;;;;;;-148.56;100.00;61375.16;5108300;27;20034;-32
2022/06/05 05:59:36;;;;;;;5.57;3.47;;;;;;;-148.56;100.00;61375.16;5105024;27;20037;-32
2022/06/05 06:02:02;;;;;;;4.20;3.42;;;;;;;-148.56;100.00;61375.16;5106997;27;20040;-31
2022/06/05 06:04:27;;;;;;;6.28;3.38;;;;;;;-148.56;100.00;61375.16;5098331;27;20058;-30
2022/06/05 06:06:53;;;;;;;5.80;3.55;;;;;;;-148.56;100.00;61375.16;5100834;27;20031;-31
2022/06/05 06:09:19;;;;;;;4.47;3.53;;;;;;;-148.56;100.00;61375.16;5106266;27;20417;-31
2022/06/05 06:11:45;;;;;;;5.57;3.20;;;;;;;-148.56;100.00;61375.16;5103747;27;20073;-30
2022/06/05 06:14:11;;;;;;;4.30;3.42;;;;;;;-148.56;100.00;61375.16;5097379;27;20093;-36
2022/06/05 06:16:36;;;;;;;5.47;3.17;;;;;;;-148.56;100.00;61375.16;5104591;27;20038;-34
2022/06/05 06:19:01;;;;;;;7.03;3.30;;;;;;;-148.56;100.00;61375.16;5107235;27;20106;-38
2022/06/05 06:21:27;;;;;;;3.40;2.90;;;;;;;-148.56;100.00;61375.16;5113126;27;20072;-33
2022/06/05 06:23:52;;;;;;;4.93;3.20;;;;;;;-148.56;100.00;61375.16;5112122;27;20095;-31
2022/06/05 06:26:18;;;;;;;6.28;3.28;;;;;;;-148.56;100.00;61375.16;5111900;27;20744;-34
2022/06/05 06:28:43;;;;;;;4.20;3.08;;;;;;;-148.56;100.00;61375.16;5109482;27;20035;-32
2022/06/05 06:31:11;;;;;;;5.75;3.20;;;;;;;-148.56;100.00;61375.16;5111997;27;20027;-34
2022/06/05 06:33:37;;;;;;;4.47;3.05;;;;;;;-148.56;100.00;61375.16;5107673;27;20023;-35
2022/06/05 06:36:03;;;;;;;4.47;3.05;;;;;;;-148.56;100.00;61375.16;5113934;27;20027;-32
2022/06/05 06:38:28;;;;;;;4.05;3.10;;;;;;;-148.56;100.00;61375.16;5114721;27;20506;-31
2022/06/05 06:41:04;;;;;;;4.20;3.10;;;;;;;-148.56;100.00;61375.16;5112335;27;20050;-33
2022/06/05 06:43:30;;;;;;;4.90;3.03;;;;;;;-148.56;100.00;61375.16;5107092;27;20031;-28
2022/06/05 06:45:55;;;;;;;4.15;3.22;;;;;;;-148.56;100.00;61375.16;5111607;27;20551;-31
2022/06/05 06:48:21;;;;;;;23.77;8.75;;;;;;;-148.56;100.00;61375.16;5093032;27;20035;-33
2022/06/05 06:50:46;;;;;;;23.33;7.63;;;;;;;-148.56;100.00;61375.16;5090872;27;20760;-34
2022/06/05 06:53:12;;;;;;;17.48;6.45;;;;;;;-148.56;100.00;61375.16;5100914;27;20478;-42
2022/06/05 06:55:37;;;;;;;11.57;4.90;;;;;;;-148.56;100.00;61375.16;5105104;27;20031;-34
2022/06/05 06:58:02;;;;;;;12.10;5.65;;;;;;;-148.56;100.00;61375.16;5099296;27;20019;-33
2022/06/05 07:00:28;;;;;;;17.10;5.68;;;;;;;-148.56;100.00;61375.16;5103616;27;20649;-36
2022/06/05 07:02:53;;;;;;;14.13;5.22;;;;;;;-148.56;100.00;61375.16;5104377;27;20030;-30
2022/06/05 07:05:19;;;;;;;11.85;4.97;;;;;;;-148.56;100.00;61375.16;5101915;27;20027;-31
2022/06/05 07:07:44;;;;;;;12.85;4.88;;;;;;;-148.56;100.00;61375.16;5095848;27;20043;-34
2022/06/05 07:10:09;;;;;;;11.10;4.40;;;;;;;-148.56;100.00;61375.16;5105419;27;20061;-32
2022/06/05 07:12:35;;;;;;;8.50;4.07;;;;;;;-148.56;100.00;61375.16;5100661;27;20416;-31
2022/06/05 07:15:02;;;;;;;10.38;4.45;;;;;;;-148.56;100.00;61375.16;5099429;27;20028;-34
2022/06/05 07:17:28;;;;;;;11.38;4.47;;;;;;;-148.56;100.00;61375.16;5103844;27;20114;-37
2022/06/05 07:19:53;;;;;;;10.98;4.18;;;;;;;-148.56;100.00;61375.16;5106352;27;20143;-31
2022/06/05 07:22:19;;;;;;;9.10;3.92;;;;;;;-148.56;100.00;61375.16;5102213;27;20023;-34
2022/06/05 07:24:44;;;;;;;8.68;3.97;;;;;;;-148.56;100.00;61375.16;5110882;27;20379;-33
2022/06/05 07:27:09;;;;;;;9.00;3.92;;;;;;;-148.56;100.00;61375.16;5102738;27;20084;-35
2022/06/05 07:29:35;;;;;;;7.57;3.55;;;;;;;-148.56;100.00;61375.16;5100481;27;20501;-31
2022/06/05 07:32:00;;;;;;;7.03;3.80;;;;;;;-148.56;100.00;61375.16;5096434;27;20046;-32
2022/06/05 07:34:25;;;;;;;7.45;3.75;;;;;;;-148.56;100.00;61375.16;5101625;27;20038;-32
2022/06/05 07:36:51;;;;;;;8.18;3.75;;;;;;;-148.56;100.00;61375.16;5100327;27;20031;-31
2022/06/05 07:39:16;;;;;;;7.95;3.60;;;;;;;-148.56;100.00;61375.16;5101074;27;20031;-33
2022/06/05 07:41:42;;;;;;;6.85;3.55;;;;;;;-148.56;100.00;61375.16;5100223;27;20525;-30
2022/06/05 07:44:07;;;;;;;9.75;3.60;;;;;;;-148.56;100.00;61375.16;5097835;27;20524;-32
2022/06/05 07:46:34;;;;;;;8.73;3.65;;;;;;;-148.56;100.00;61375.16;5096565;27;20962;-31
2022/06/05 07:48:59;;;;;;;7.20;3.53;;;;;;;-148.56;100.00;61375.16;5076701;27;20030;-31
2022/06/05 07:54:27;;;;;;;11.05;3.67;;;;;;;-148.56;100.00;61375.16;5100554;27;20095;-30
2022/06/05 07:57:08;;;;;;;8.13;3.63;;;;;;;-148.56;100.00;61375.16;5100712;27;20020;-31
2022/06/05 07:59:35;;;;;;;7.57;3.20;;;;;;;-148.56;100.00;61375.16;5099374;27;20508;-29
2022/06/05 08:02:04;;;;;;;6.75;3.55;;;;;;;-148.56;100.00;61375.16;5105331;27;20042;-32
2022/06/05 08:04:29;;;;;;;6.55;3.40;;;;;;;-148.56;100.00;61375.16;5103809;27;20024;-29
2022/06/05 08:06:55;;;;;;;8.52;3.17;;;;;;;-148.56;100.00;61375.16;5102092;27;20609;-32
2022/06/05 08:09:20;;;;;;;5.75;3.05;;;;;;;-148.56;100.00;61375.16;5101851;27;20039;-31
2022/06/05 08:11:46;;;;;;;7.07;3.20;;;;;;;-148.56;100.00;61375.16;5101523;27;22559;-30
2022/06/05 08:14:12;;;;;;;6.30;3.10;;;;;;;-148.56;100.00;61375.16;5097365;27;20027;-31
2022/06/05 08:16:43;;;;;;;6.55;3.33;;;;;;;-148.56;100.00;61375.16;5088155;28;20670;-30
2022/06/05 08:19:08;;;;;;;6.37;3.00;;;;;;;-148.56;100.00;61375.16;5104796;27;20607;-34
2022/06/05 08:21:34;;;;;;;6.05;3.30;;;;;;;-148.56;100.00;61375.16;5107422;27;20019;-33
2022/06/05 08:23:59;;;;;;;5.32;2.95;;;;;;;-148.56;100.00;61375.16;5103608;27;20485;-31
2022/06/05 08:26:25;;;;;;;5.90;3.15;;;;;;;-148.56;100.00;61375.16;5105922;27;20031;-31
2022/06/05 08:28:50;;;;;;;5.90;2.92;;;;;;;-148.56;100.00;61375.16;5101450;27;20034;-31
2022/06/05 08:31:15;;;;;;;4.18;2.58;;;;;;;-148.56;100.00;61375.16;5105468;27;20502;-39
2022/06/05 08:33:42;;;;;;;6.90;3.25;;;;;;;-148.56;100.00;61375.16;5105562;27;20042;-31
2022/06/05 08:36:07;;;;;;;6.32;3.00;;;;;;;-148.56;100.00;61375.16;5105771;27;20058;-29
2022/06/05 08:41:30;;;;;;;6.85;3.38;;;;;;;-148.56;100.00;61375.16;5100464;27;20164;-35
2022/06/05 08:44:04;;;;;;;4.13;2.80;;;;;;;-148.56;100.00;61375.16;5106531;27;20717;-30
2022/06/05 08:46:45;;;;;;;9.13;2.60;;;;;;;-148.56;100.00;61375.16;5100400;27;20042;-34
2022/06/05 08:49:12;;;;;;;9.87;2.63;;;;;;;-148.56;100.00;61375.16;5077193;27;21647;-39
2022/06/05 08:52:02;;;;;;;7.03;2.92;;;;;;;-148.56;100.00;61375.16;5108861;27;20307;-30
2022/06/05 08:54:40;;;;;;;7.85;2.92;;;;;;;-148.56;100.00;61375.16;5111606;27;20126;-32
2022/06/05 08:57:14;;;;;;;6.25;3.25;;;;;;;-148.56;100.00;61375.16;5088797;27;20038;-30
2022/06/05 08:59:46;;;;;;;5.90;3.40;;;;;;;-148.56;100.00;61375.16;5088189;28;20046;-31
2022/06/05 09:02:25;;;;;;;6.22;3.28;;;;;;;-148.56;100.00;61375.16;5107407;27;20114;-33
2022/06/05 09:05:02;;;;;;;6.22;3.10;;;;;;;-148.56;100.00;61375.16;5079612;27;20065;-32
2022/06/05 09:07:33;;;;;;;7.93;3.20;;;;;;;-148.56;100.00;61375.16;5080571;28;20054;-30
2022/06/05 09:10:03;;;;;;;6.83;3.40;;;;;;;-148.56;100.00;61375.16;5062896;27;20052;-31
2022/06/05 09:12:41;;;;;;;9.40;4.65;;;;;;;-148.56;100.00;61375.16;5066051;28;20436;-37
2022/06/05 09:15:33;;;;;;;7.18;4.30;;;;;;;-148.56;100.00;61375.16;5111494;27;20019;-33
2022/06/05 09:18:00;;;;;;;6.05;3.83;;;;;;;-148.56;100.00;61375.16;5083253;27;20035;-31
2022/06/05 09:20:33;;;;;;;5.43;3.13;;;;;;;-148.56;100.00;61375.16;5104404;27;20027;-30
2022/06/05 09:22:59;;;;;;;7.10;3.00;;;;;;;-148.56;100.00;61375.16;5108060;27;20031;-34
2022/06/05 09:25:43;;;;;;;5.30;3.30;;;;;;;-148.56;100.00;61375.16;5105142;27;20031;-30
2022/06/05 09:28:30;;;;;;;5.68;3.15;;;;;;;-148.56;100.00;61375.16;5086615;27;20830;-35
2022/06/05 09:31:17;;;;;;;9.52;2.95;;;;;;;-148.56;100.00;61375.16;5085477;27;20031;-31
2022/06/05 09:33:43;;;;;;;4.38;2.65;;;;;;;-148.56;100.00;61375.16;5102047;27;20663;-34
2022/06/05 09:36:09;;;;;;;5.13;2.88;;;;;;;-148.56;100.00;61375.16;5096724;27;20028;-35
2022/06/05 09:38:42;;;;;;;5.13;2.67;;;;;;;-148.56;100.00;61375.16;5104240;27;20150;-32
2022/06/05 09:41:10;;;;;;;7.80;2.72;;;;;;;-148.56;100.00;61375.16;5086041;27;20033;-31
2022/06/05 09:43:44;;;;;;;5.78;2.63;;;;;;;-148.56;100.00;61375.16;5100934;27;20780;-35
2022/06/05 09:46:19;;;;;;;9.98;3.00;;;;;;;-148.56;100.00;61375.16;5105315;27;20046;-31
2022/06/05 09:48:50;;;;;;;6.65;2.83;;;;;;;-148.56;100.00;61375.16;5104890;27;20035;-32
2022/06/05 09:51:16;;;;;;;5.75;2.95;;;;;;;-148.56;100.00;61375.16;5101606;27;20049;-35
2022/06/05 09:53:58;;;;;;;8.48;3.45;;;;;;;-148.56;100.00;61375.16;5080371;27;20452;-29
2022/06/05 09:59:39;;;;;;;8.80;2.92;;;;;;;-148.56;100.00;61375.16;5108530;27;20527;-30
2022/06/05 10:02:05;;;;;;;5.35;3.00;;;;;;;-148.56;100.00;61375.16;5086609;27;20031;-34
2022/06/05 10:04:31;;;;;;;6.78;2.60;;;;;;;-148.56;100.00;61375.16;5084636;28;20026;-36
2022/06/05 10:07:05;;;;;;;7.07;3.28;;;;;;;-148.56;100.00;61375.16;5087475;27;20027;-32
2022/06/05 10:09:31;;;;;;;7.85;3.05;;;;;;;-148.56;100.00;61375.16;5092260;28;20102;-32
2022/06/05 10:12:03;;;;;;;6.30;2.83;;;;;;;-148.56;100.00;61375.16;5067774;27;20031;-32
2022/06/05 10:14:52;;;;;;;6.90;3.00;;;;;;;-148.56;100.00;61375.16;5088064;28;20393;-36
2022/06/05 10:17:40;;;;;;;4.35;2.70;;;;;;;-148.56;100.00;61375.16;5090635;27;20418;-34
2022/06/05 10:20:13;;;;;;;4.03;2.50;;;;;;;-148.56;100.00;61375.16;5090536;27;20529;-31
2022/06/05 10:22:38;;;;;;;5.25;2.58;;;;;;;-148.56;100.00;61375.16;5107487;27;20039;-34
2022/06/05 10:25:35;;;;;;;5.57;2.58;;;;;;;-148.56;100.00;61375.16;5106181;27;20875;-29
2022/06/05 10:28:09;;;;;;;7.25;2.80;;;;;;;-148.56;100.00;61375.16;5108357;27;20230;-34
2022/06/05 10:31:11;;;;;;;7.22;2.70;;;;;;;-148.56;100.00;61375.16;5088877;28;20508;-31
2022/06/05 10:33:39;;;;;;;4.78;2.70;;;;;;;-148.56;100.00;61375.16;5096763;27;20082;-31
2022/06/05 10:36:17;;;;;;;4.47;2.50;;;;;;;-148.56;100.00;61375.16;5107427;27;20031;-31
2022/06/05 10:38:46;;;;;;;4.35;2.50;;;;;;;-148.56;100.00;61375.16;5106853;27;20053;-31
2022/06/05 10:41:34;;;;;;;4.47;2.55;;;;;;;-148.56;100.00;61375.16;5111654;27;20526;-32
2022/06/05 10:44:21;;;;;;;5.63;2.88;;;;;;;-148.56;100.00;61375.16;5108602;27;20051;-37
2022/06/05 10:47:00;;;;;;;5.03;2.47;;;;;;;-148.56;100.00;61375.16;5104611;27;20115;-31
2022/06/05 10:49:41;;;;;;;3.83;2.60;;;;;;;-148.56;100.00;61375.16;5106291;27;20038;-29
2022/06/05 10:52:34;;;;;;;4.60;2.50;;;;;;;-148.56;100.00;61375.16;5074672;27;20031;-31
2022/06/05 10:55:17;;;;;;;4.85;2.60;;;;;;;-148.56;100.00;61375.16;5108716;27;20065;-29
2022/06/05 10:58:07;;;;;;;4.10;2.47;;;;;;;-148.56;100.00;61375.16;5113265;27;20035;-30
2022/06/05 11:00:44;;;;;;;3.75;2.53;;;;;;;-148.56;100.00;61375.16;5095423;27;20843;-31
2022/06/05 11:03:33;;;;;;;3.83;2.40;;;;;;;-148.56;100.00;61375.16;5106142;27;20031;-31
2022/06/05 11:06:42;;;;;;;3.63;2.50;;;;;;;-148.56;100.00;61375.16;5103372;27;20046;-31
2022/06/05 11:09:45;;;;;;;4.25;2.25;;;;;;;-148.56;100.00;61375.16;5060164;27;20042;-30
2022/06/05 11:15:22;;;;;;;5.40;2.30;;;;;;;-148.56;100.00;61375.16;5107115;27;20034;-34
2022/06/05 11:18:07;;;;;;;6.03;2.60;;;;;;;-148.56;100.00;61375.16;5110283;27;20418;-30
2022/06/05 11:20:33;;;;;;;3.85;2.13;;;;;;;-148.56;100.00;61375.16;5117551;27;20030;-31
2022/06/05 11:23:03;;;;;;;5.38;2.42;;;;;;;-148.56;100.00;61375.16;5082307;28;20035;-30
2022/06/05 11:25:33;;;;;;;7.57;2.33;;;;;;;-148.56;100.00;61375.16;5098839;27;20094;-32
2022/06/05 11:28:34;;;;;;;4.07;2.53;;;;;;;-148.56;100.00;61375.16;5099140;27;20213;-29
2022/06/05 11:31:05;;;;;;;3.28;2.15;;;;;;;-148.56;100.00;61375.16;5099773;27;20508;-30
2022/06/05 11:33:32;;;;;;;2.97;2.53;;;;;;;-148.56;100.00;61375.16;5117685;27;20027;-32
2022/06/05 11:36:43;;;;;;;3.35;2.40;;;;;;;-148.56;100.00;61375.16;5083637;27;20054;-30
2022/06/05 11:39:26;;;;;;;3.25;2.08;;;;;;;-148.56;100.00;61375.16;5117112;27;20146;-30
2022/06/05 11:42:00;;;;;;;3.35;2.20;;;;;;;-148.56;100.00;61375.16;5101124;28;20114;-33
2022/06/05 11:44:37;;;;;;;4.22;2.50;;;;;;;-148.56;100.00;61375.16;5121914;28;20027;-32
2022/06/05 11:47:07;;;;;;;2.75;1.98;;;;;;;-148.56;100.00;61375.16;5122132;28;20404;-30